sensor_id;sensor_type;location;lat;lon;timestamp;temperature;humidity
20204;DHT22;10261;49.010;12.034;2023-06-04T00:01:01;13.00;99.90
20204;DHT22;10261;49.010;12.034;2023-06-04T00:02:04;13.00;99.90
20204;DHT22;10261;49.010;12.034;2023-06-04T00:03:06;13.00;99.90
20204;DHT22;10261;49.010;12.034;2023-06-04T00:04:09;13.10;99.40
20204;DHT22;10261;49.010;12.034;2023-06-04T00:05:11;13.10;99.40
20204;DHT22;10261;49.010;12.034;2023-06-04T00:06:14;13.00;99.80
20204;DHT22;10261;49.010;12.034;2023-06-04T00:07:16;12.90;99.40
20204;DHT22;10261;49.010;12.034;2023-06-04T00:08:19;13.00;98.90
20204;DHT22;10261;49.010;12.034;2023-06-04T00:09:22;13.00;99.60
20204;DHT22;10261;49.010;12.034;2023-06-04T00:10:24;12.90;99.30
20204;DHT22;10261;49.010;12.034;2023-06-04T00:11:27;13.00;99.40
20204;DHT22;10261;49.010;12.034;2023-06-04T00:12:30;12.90;99.00
20204;DHT22;10261;49.010;12.034;2023-06-04T00:13:33;13.00;99.10
20204;DHT22;10261;49.010;12.034;2023-06-04T00:14:35;12.90;99.50
20204;DHT22;10261;49.010;12.034;2023-06-04T00:15:38;12.80;99.70
20204;DHT22;10261;49.010;12.034;2023-06-04T00:16:40;12.80;99.70
20204;DHT22;10261;49.010;12.034;2023-06-04T00:17:44;12.70;99.90
20204;DHT22;10261;49.010;12.034;2023-06-04T00:18:47;12.70;99.90
20204;DHT22;10261;49.010;12.034;2023-06-04T00:19:48;12.70;99.90
20204;DHT22;10261;49.010;12.034;2023-06-04T00:20:51;12.80;99.80
20204;DHT22;10261;49.010;12.034;2023-06-04T00:21:53;12.80;99.90
20204;DHT22;10261;49.010;12.034;2023-06-04T00:22:56;12.70;99.90
20204;DHT22;10261;49.010;12.034;2023-06-04T00:23:59;12.70;99.90
20204;DHT22;10261;49.010;12.034;2023-06-04T00:25:03;12.70;99.70
20204;DHT22;10261;49.010;12.034;2023-06-04T00:26:05;12.70;99.90
20204;DHT22;10261;49.010;12.034;2023-06-04T00:27:08;12.70;99.50
20204;DHT22;10261;49.010;12.034;2023-06-04T00:28:11;12.70;99.90
20204;DHT22;10261;49.010;12.034;2023-06-04T00:29:14;12.70;99.90
20204;DHT22;10261;49.010;12.034;2023-06-04T00:30:16;12.70;99.90
20204;DHT22;10261;49.010;12.034;2023-06-04T00:31:20;12.60;99.90
20204;DHT22;10261;49.010;12.034;2023-06-04T00:32:22;12.50;99.90
20204;DHT22;10261;49.010;12.034;2023-06-04T00:33:25;12.50;99.90
20204;DHT22;10261;49.010;12.034;2023-06-04T00:34:27;12.60;99.90
20204;DHT22;10261;49.010;12.034;2023-06-04T00:35:32;12.50;99.90
20204;DHT22;10261;49.010;12.034;2023-06-04T00:36:34;12.50;99.90
20204;DHT22;10261;49.010;12.034;2023-06-04T00:37:37;12.40;99.90
20204;DHT22;10261;49.010;12.034;2023-06-04T00:38:39;12.50;99.90
20204;DHT22;10261;49.010;12.034;2023-06-04T00:39:42;12.40;99.90
20204;DHT22;10261;49.010;12.034;2023-06-04T00:40:44;12.30;99.90
20204;DHT22;10261;49.010;12.034;2023-06-04T00:41:47;12.30;99.90
20204;DHT22;10261;49.010;12.034;2023-06-04T00:42:49;12.30;99.90
20204;DHT22;10261;49.010;12.034;2023-06-04T00:43:53;12.30;99.90
20204;DHT22;10261;49.010;12.034;2023-06-04T00:44:58;13.50;99.90
20204;DHT22;10261;49.010;12.034;2023-06-04T00:46:01;12.20;99.90
20204;DHT22;10261;49.010;12.034;2023-06-04T00:47:05;12.20;99.90
20204;DHT22;10261;49.010;12.034;2023-06-04T00:48:08;12.20;99.90
20204;DHT22;10261;49.010;12.034;2023-06-04T00:49:10;12.20;99.90
20204;DHT22;10261;49.010;12.034;2023-06-04T00:50:14;12.30;99.90
20204;DHT22;10261;49.010;12.034;2023-06-04T00:51:16;12.30;99.90
20204;DHT22;10261;49.010;12.034;2023-06-04T00:52:19;12.10;99.90
20204;DHT22;10261;49.010;12.034;2023-06-04T00:53:23;12.10;99.90
20204;DHT22;10261;49.010;12.034;2023-06-04T00:54:27;12.20;99.90
20204;DHT22;10261;49.010;12.034;2023-06-04T00:55:28;12.20;99.90
20204;DHT22;10261;49.010;12.034;2023-06-04T00:56:33;12.10;99.90
20204;DHT22;10261;49.010;12.034;2023-06-04T00:57:37;12.20;99.90
20204;DHT22;10261;49.010;12.034;2023-06-04T00:58:41;12.00;99.90
20204;DHT22;10261;49.010;12.034;2023-06-04T00:59:45;11.90;99.90
20204;DHT22;10261;49.010;12.034;2023-06-04T01:00:49;12.00;99.90
20204;DHT22;10261;49.010;12.034;2023-06-04T01:01:57;11.90;99.90
20204;DHT22;10261;49.010;12.034;2023-06-04T01:03:05;12.00;99.90
20204;DHT22;10261;49.010;12.034;2023-06-04T01:04:14;11.90;99.90
20204;DHT22;10261;49.010;12.034;2023-06-04T01:05:21;12.00;99.90
20204;DHT22;10261;49.010;12.034;2023-06-04T01:06:31;11.90;99.90
20204;DHT22;10261;49.010;12.034;2023-06-04T01:07:38;11.90;99.90
20204;DHT22;10261;49.010;12.034;2023-06-04T01:08:43;11.90;99.90
20204;DHT22;10261;49.010;12.034;2023-06-04T01:09:46;11.90;99.90
20204;DHT22;10261;49.010;12.034;2023-06-04T01:10:51;11.90;99.90
20204;DHT22;10261;49.010;12.034;2023-06-04T01:11:54;11.80;99.90
20204;DHT22;10261;49.010;12.034;2023-06-04T01:12:59;11.70;99.90
20204;DHT22;10261;49.010;12.034;2023-06-04T01:14:03;11.70;99.90
20204;DHT22;10261;49.010;12.034;2023-06-04T01:15:08;11.80;99.90
20204;DHT22;10261;49.010;12.034;2023-06-04T01:16:12;11.70;99.90
20204;DHT22;10261;49.010;12.034;2023-06-04T01:17:19;11.80;99.90
20204;DHT22;10261;49.010;12.034;2023-06-04T01:18:27;11.80;99.90
20204;DHT22;10261;49.010;12.034;2023-06-04T01:19:57;11.80;99.90
20204;DHT22;10261;49.010;12.034;2023-06-04T01:21:07;11.70;99.90
20204;DHT22;10261;49.010;12.034;2023-06-04T01:22:11;11.60;99.90
20204;DHT22;10261;49.010;12.034;2023-06-04T01:23:26;11.60;99.90
20204;DHT22;10261;49.010;12.034;2023-06-04T01:24:37;11.50;99.90
20204;DHT22;10261;49.010;12.034;2023-06-04T01:25:44;11.60;99.90
20204;DHT22;10261;49.010;12.034;2023-06-04T01:26:47;11.60;99.90
20204;DHT22;10261;49.010;12.034;2023-06-04T01:27:54;11.60;99.90
20204;DHT22;10261;49.010;12.034;2023-06-04T01:28:58;11.50;99.90
20204;DHT22;10261;49.010;12.034;2023-06-04T01:30:03;11.50;99.90
20204;DHT22;10261;49.010;12.034;2023-06-04T01:31:07;11.50;99.90
20204;DHT22;10261;49.010;12.034;2023-06-04T01:32:11;11.40;99.90
20204;DHT22;10261;49.010;12.034;2023-06-04T01:33:15;11.40;99.90
20204;DHT22;10261;49.010;12.034;2023-06-04T01:34:18;11.40;99.90
20204;DHT22;10261;49.010;12.034;2023-06-04T01:35:21;11.40;99.90
20204;DHT22;10261;49.010;12.034;2023-06-04T01:36:26;11.30;99.90
20204;DHT22;10261;49.010;12.034;2023-06-04T01:37:28;11.40;99.90
20204;DHT22;10261;49.010;12.034;2023-06-04T01:38:30;11.40;99.90
20204;DHT22;10261;49.010;12.034;2023-06-04T01:39:32;11.40;99.90
20204;DHT22;10261;49.010;12.034;2023-06-04T01:40:36;11.40;99.90
20204;DHT22;10261;49.010;12.034;2023-06-04T01:41:38;11.40;99.90
20204;DHT22;10261;49.010;12.034;2023-06-04T01:42:41;11.40;99.90
20204;DHT22;10261;49.010;12.034;2023-06-04T01:43:43;11.30;99.90
20204;DHT22;10261;49.010;12.034;2023-06-04T01:44:46;11.40;99.90
20204;DHT22;10261;49.010;12.034;2023-06-04T01:45:48;11.20;99.90
20204;DHT22;10261;49.010;12.034;2023-06-04T01:46:52;11.30;99.90
20204;DHT22;10261;49.010;12.034;2023-06-04T01:47:54;11.30;99.90
20204;DHT22;10261;49.010;12.034;2023-06-04T01:48:58;11.30;99.90
20204;DHT22;10261;49.010;12.034;2023-06-04T01:50:00;11.30;99.90
20204;DHT22;10261;49.010;12.034;2023-06-04T01:51:03;11.40;99.90
20204;DHT22;10261;49.010;12.034;2023-06-04T01:52:05;11.10;99.90
20204;DHT22;10261;49.010;12.034;2023-06-04T01:53:09;11.10;99.90
20204;DHT22;10261;49.010;12.034;2023-06-04T01:54:11;11.10;99.90
20204;DHT22;10261;49.010;12.034;2023-06-04T01:55:17;11.00;99.90
20204;DHT22;10261;49.010;12.034;2023-06-04T01:56:19;11.00;99.90
20204;DHT22;10261;49.010;12.034;2023-06-04T01:57:22;11.00;99.90
20204;DHT22;10261;49.010;12.034;2023-06-04T01:58:24;11.00;99.90
20204;DHT22;10261;49.010;12.034;2023-06-04T01:59:29;11.00;99.90
20204;DHT22;10261;49.010;12.034;2023-06-04T02:00:33;11.00;99.90
20204;DHT22;10261;49.010;12.034;2023-06-04T02:01:36;11.00;99.90
20204;DHT22;10261;49.010;12.034;2023-06-04T02:02:41;11.10;99.90
20204;DHT22;10261;49.010;12.034;2023-06-04T02:03:44;11.00;99.90
20204;DHT22;10261;49.010;12.034;2023-06-04T02:04:46;11.00;99.90
20204;DHT22;10261;49.010;12.034;2023-06-04T02:05:53;11.00;99.90
20204;DHT22;10261;49.010;12.034;2023-06-04T02:06:55;10.90;99.90
20204;DHT22;10261;49.010;12.034;2023-06-04T02:08:01;10.80;99.90
20204;DHT22;10261;49.010;12.034;2023-06-04T02:09:03;10.80;99.90
20204;DHT22;10261;49.010;12.034;2023-06-04T02:10:07;10.90;99.90
20204;DHT22;10261;49.010;12.034;2023-06-04T02:11:09;11.00;99.90
20204;DHT22;10261;49.010;12.034;2023-06-04T02:12:12;10.90;99.90
20204;DHT22;10261;49.010;12.034;2023-06-04T02:13:14;10.90;99.90
20204;DHT22;10261;49.010;12.034;2023-06-04T02:14:17;10.90;99.90
20204;DHT22;10261;49.010;12.034;2023-06-04T02:15:19;10.90;99.90
20204;DHT22;10261;49.010;12.034;2023-06-04T02:16:23;10.80;99.90
20204;DHT22;10261;49.010;12.034;2023-06-04T02:17:25;10.80;99.90
20204;DHT22;10261;49.010;12.034;2023-06-04T02:18:30;10.80;99.90
20204;DHT22;10261;49.010;12.034;2023-06-04T02:19:32;10.90;99.90
20204;DHT22;10261;49.010;12.034;2023-06-04T02:21:41;10.80;99.90
20204;DHT22;10261;49.010;12.034;2023-06-04T02:22:43;10.90;99.90
20204;DHT22;10261;49.010;12.034;2023-06-04T02:23:45;10.80;99.90
20204;DHT22;10261;49.010;12.034;2023-06-04T02:24:48;10.90;99.90
20204;DHT22;10261;49.010;12.034;2023-06-04T02:25:50;10.90;99.90
20204;DHT22;10261;49.010;12.034;2023-06-04T02:26:53;10.90;99.90
20204;DHT22;10261;49.010;12.034;2023-06-04T02:27:56;10.90;99.90
20204;DHT22;10261;49.010;12.034;2023-06-04T02:28:59;10.80;99.90
20204;DHT22;10261;49.010;12.034;2023-06-04T02:30:01;10.70;99.90
20204;DHT22;10261;49.010;12.034;2023-06-04T02:31:04;10.70;99.90
20204;DHT22;10261;49.010;12.034;2023-06-04T02:32:09;10.80;99.90
20204;DHT22;10261;49.010;12.034;2023-06-04T02:33:11;10.90;99.90
20204;DHT22;10261;49.010;12.034;2023-06-04T02:34:16;10.80;99.90
20204;DHT22;10261;49.010;12.034;2023-06-04T02:35:18;10.70;99.90
20204;DHT22;10261;49.010;12.034;2023-06-04T02:36:23;10.80;99.90
20204;DHT22;10261;49.010;12.034;2023-06-04T02:37:25;10.90;99.90
20204;DHT22;10261;49.010;12.034;2023-06-04T02:38:27;10.80;99.90
20204;DHT22;10261;49.010;12.034;2023-06-04T02:39:29;10.80;99.90
20204;DHT22;10261;49.010;12.034;2023-06-04T02:40:32;10.80;99.90
20204;DHT22;10261;49.010;12.034;2023-06-04T02:41:34;10.90;99.90
20204;DHT22;10261;49.010;12.034;2023-06-04T02:42:38;10.80;99.90
20204;DHT22;10261;49.010;12.034;2023-06-04T02:43:39;10.70;99.90
20204;DHT22;10261;49.010;12.034;2023-06-04T02:44:42;10.70;99.90
20204;DHT22;10261;49.010;12.034;2023-06-04T02:45:44;10.60;99.90
20204;DHT22;10261;49.010;12.034;2023-06-04T02:46:47;10.70;99.90
20204;DHT22;10261;49.010;12.034;2023-06-04T02:47:49;10.70;99.90
20204;DHT22;10261;49.010;12.034;2023-06-04T02:48:53;10.60;99.90
20204;DHT22;10261;49.010;12.034;2023-06-04T02:49:57;10.80;99.90
20204;DHT22;10261;49.010;12.034;2023-06-04T02:50:59;10.70;99.90
20204;DHT22;10261;49.010;12.034;2023-06-04T02:52:02;10.60;99.90
20204;DHT22;10261;49.010;12.034;2023-06-04T02:53:04;10.60;99.90
20204;DHT22;10261;49.010;12.034;2023-06-04T02:54:08;10.60;99.90
20204;DHT22;10261;49.010;12.034;2023-06-04T02:55:10;10.60;99.90
20204;DHT22;10261;49.010;12.034;2023-06-04T02:56:14;10.60;99.90
20204;DHT22;10261;49.010;12.034;2023-06-04T02:57:16;10.70;99.90
20204;DHT22;10261;49.010;12.034;2023-06-04T02:58:19;10.70;99.90
20204;DHT22;10261;49.010;12.034;2023-06-04T02:59:23;10.50;99.90
20204;DHT22;10261;49.010;12.034;2023-06-04T03:00:26;10.60;99.90
20204;DHT22;10261;49.010;12.034;2023-06-04T03:01:29;10.50;99.90
20204;DHT22;10261;49.010;12.034;2023-06-04T03:02:32;10.50;99.90
20204;DHT22;10261;49.010;12.034;2023-06-04T03:03:35;10.50;99.90
20204;DHT22;10261;49.010;12.034;2023-06-04T03:04:37;10.40;99.90
20204;DHT22;10261;49.010;12.034;2023-06-04T03:05:42;10.50;99.90
20204;DHT22;10261;49.010;12.034;2023-06-04T03:06:44;10.40;99.90
20204;DHT22;10261;49.010;12.034;2023-06-04T03:07:48;10.50;99.90
20204;DHT22;10261;49.010;12.034;2023-06-04T03:08:51;10.50;99.90
20204;DHT22;10261;49.010;12.034;2023-06-04T03:09:53;10.40;99.90
20204;DHT22;10261;49.010;12.034;2023-06-04T03:10:55;10.40;99.90
20204;DHT22;10261;49.010;12.034;2023-06-04T03:12:00;10.50;99.90
20204;DHT22;10261;49.010;12.034;2023-06-04T03:13:03;10.50;99.90
20204;DHT22;10261;49.010;12.034;2023-06-04T03:14:06;10.50;99.90
20204;DHT22;10261;49.010;12.034;2023-06-04T03:15:08;10.50;99.90
20204;DHT22;10261;49.010;12.034;2023-06-04T03:16:12;10.50;99.90
20204;DHT22;10261;49.010;12.034;2023-06-04T03:17:14;10.50;99.90
20204;DHT22;10261;49.010;12.034;2023-06-04T03:18:17;10.50;99.90
20204;DHT22;10261;49.010;12.034;2023-06-04T03:19:18;10.50;99.90
20204;DHT22;10261;49.010;12.034;2023-06-04T03:20:22;10.50;99.90
20204;DHT22;10261;49.010;12.034;2023-06-04T03:21:27;10.50;99.90
20204;DHT22;10261;49.010;12.034;2023-06-04T03:22:30;10.50;99.90
20204;DHT22;10261;49.010;12.034;2023-06-04T03:23:33;10.50;99.90
20204;DHT22;10261;49.010;12.034;2023-06-04T03:24:38;10.40;99.90
20204;DHT22;10261;49.010;12.034;2023-06-04T03:25:40;10.40;99.90
20204;DHT22;10261;49.010;12.034;2023-06-04T03:26:43;10.40;99.90
20204;DHT22;10261;49.010;12.034;2023-06-04T03:27:45;10.50;99.90
20204;DHT22;10261;49.010;12.034;2023-06-04T03:28:48;10.50;99.90
20204;DHT22;10261;49.010;12.034;2023-06-04T03:29:50;10.50;99.90
20204;DHT22;10261;49.010;12.034;2023-06-04T03:30:53;10.50;99.90
20204;DHT22;10261;49.010;12.034;2023-06-04T03:31:55;10.40;99.90
20204;DHT22;10261;49.010;12.034;2023-06-04T03:32:58;10.40;99.90
20204;DHT22;10261;49.010;12.034;2023-06-04T03:34:00;10.40;99.90
20204;DHT22;10261;49.010;12.034;2023-06-04T03:35:03;10.40;99.90
20204;DHT22;10261;49.010;12.034;2023-06-04T03:36:05;10.40;99.90
20204;DHT22;10261;49.010;12.034;2023-06-04T03:37:09;10.40;99.90
20204;DHT22;10261;49.010;12.034;2023-06-04T03:38:12;10.40;99.90
20204;DHT22;10261;49.010;12.034;2023-06-04T03:39:14;10.40;99.90
20204;DHT22;10261;49.010;12.034;2023-06-04T03:40:17;10.50;99.90
20204;DHT22;10261;49.010;12.034;2023-06-04T03:41:20;10.40;99.90
20204;DHT22;10261;49.010;12.034;2023-06-04T03:42:22;10.30;99.90
20204;DHT22;10261;49.010;12.034;2023-06-04T03:43:25;10.40;99.90
20204;DHT22;10261;49.010;12.034;2023-06-04T03:44:27;10.30;99.90
20204;DHT22;10261;49.010;12.034;2023-06-04T03:45:30;10.30;99.90
20204;DHT22;10261;49.010;12.034;2023-06-04T03:46:32;10.30;99.90
20204;DHT22;10261;49.010;12.034;2023-06-04T03:47:35;10.20;99.90
20204;DHT22;10261;49.010;12.034;2023-06-04T03:48:37;10.10;99.90
20204;DHT22;10261;49.010;12.034;2023-06-04T03:50:42;10.20;99.90
20204;DHT22;10261;49.010;12.034;2023-06-04T03:51:47;10.20;99.90
20204;DHT22;10261;49.010;12.034;2023-06-04T03:52:51;10.20;99.90
20204;DHT22;10261;49.010;12.034;2023-06-04T03:53:54;10.20;99.90
20204;DHT22;10261;49.010;12.034;2023-06-04T03:54:57;10.20;99.90
20204;DHT22;10261;49.010;12.034;2023-06-04T03:58:07;10.20;99.90
20204;DHT22;10261;49.010;12.034;2023-06-04T03:59:11;10.20;99.90
20204;DHT22;10261;49.010;12.034;2023-06-04T04:00:14;10.20;99.90
20204;DHT22;10261;49.010;12.034;2023-06-04T04:01:17;10.20;99.90
20204;DHT22;10261;49.010;12.034;2023-06-04T04:02:19;10.20;99.90
20204;DHT22;10261;49.010;12.034;2023-06-04T04:03:21;10.30;99.90
20204;DHT22;10261;49.010;12.034;2023-06-04T04:04:24;10.40;99.90
20204;DHT22;10261;49.010;12.034;2023-06-04T04:05:27;10.30;99.90
20204;DHT22;10261;49.010;12.034;2023-06-04T04:06:30;10.20;99.90
20204;DHT22;10261;49.010;12.034;2023-06-04T04:07:32;10.20;99.90
20204;DHT22;10261;49.010;12.034;2023-06-04T04:08:37;10.30;99.90
20204;DHT22;10261;49.010;12.034;2023-06-04T04:09:39;10.40;99.90
20204;DHT22;10261;49.010;12.034;2023-06-04T04:10:41;10.20;99.90
20204;DHT22;10261;49.010;12.034;2023-06-04T04:12:47;10.40;99.90
20204;DHT22;10261;49.010;12.034;2023-06-04T04:13:50;10.30;99.90
20204;DHT22;10261;49.010;12.034;2023-06-04T04:14:53;10.30;99.90
20204;DHT22;10261;49.010;12.034;2023-06-04T04:15:54;10.30;99.90
20204;DHT22;10261;49.010;12.034;2023-06-04T04:16:57;10.40;99.90
20204;DHT22;10261;49.010;12.034;2023-06-04T04:17:59;10.40;99.90
20204;DHT22;10261;49.010;12.034;2023-06-04T04:19:03;10.40;99.90
20204;DHT22;10261;49.010;12.034;2023-06-04T04:20:05;10.50;99.90
20204;DHT22;10261;49.010;12.034;2023-06-04T04:21:08;10.60;99.90
20204;DHT22;10261;49.010;12.034;2023-06-04T04:22:11;10.50;99.90
20204;DHT22;10261;49.010;12.034;2023-06-04T04:23:14;10.60;99.90
20204;DHT22;10261;49.010;12.034;2023-06-04T04:24:23;10.60;99.90
20204;DHT22;10261;49.010;12.034;2023-06-04T04:25:26;10.70;99.90
20204;DHT22;10261;49.010;12.034;2023-06-04T04:28:36;10.70;99.90
20204;DHT22;10261;49.010;12.034;2023-06-04T04:29:39;10.70;99.90
20204;DHT22;10261;49.010;12.034;2023-06-04T04:30:44;10.70;99.90
20204;DHT22;10261;49.010;12.034;2023-06-04T04:31:48;10.60;99.90
20204;DHT22;10261;49.010;12.034;2023-06-04T04:32:51;10.50;99.90
20204;DHT22;10261;49.010;12.034;2023-06-04T04:33:55;10.50;99.90
20204;DHT22;10261;49.010;12.034;2023-06-04T04:34:57;10.60;99.90
20204;DHT22;10261;49.010;12.034;2023-06-04T04:36:01;10.60;99.90
20204;DHT22;10261;49.010;12.034;2023-06-04T04:37:03;10.50;99.90
20204;DHT22;10261;49.010;12.034;2023-06-04T04:38:06;10.60;99.90
20204;DHT22;10261;49.010;12.034;2023-06-04T04:39:09;10.60;99.90
20204;DHT22;10261;49.010;12.034;2023-06-04T04:40:13;10.60;99.90
20204;DHT22;10261;49.010;12.034;2023-06-04T04:41:15;10.60;99.90
20204;DHT22;10261;49.010;12.034;2023-06-04T04:42:18;10.70;99.90
20204;DHT22;10261;49.010;12.034;2023-06-04T04:43:29;10.80;99.90
20204;DHT22;10261;49.010;12.034;2023-06-04T04:44:32;10.80;99.90
20204;DHT22;10261;49.010;12.034;2023-06-04T04:45:35;10.80;99.90
20204;DHT22;10261;49.010;12.034;2023-06-04T04:46:37;10.90;99.90
20204;DHT22;10261;49.010;12.034;2023-06-04T04:47:40;10.90;99.90
20204;DHT22;10261;49.010;12.034;2023-06-04T04:48:42;10.90;99.90
20204;DHT22;10261;49.010;12.034;2023-06-04T04:49:45;11.00;99.90
20204;DHT22;10261;49.010;12.034;2023-06-04T04:50:51;10.80;99.90
20204;DHT22;10261;49.010;12.034;2023-06-04T04:51:54;10.90;99.90
20204;DHT22;10261;49.010;12.034;2023-06-04T04:52:57;10.90;99.90
20204;DHT22;10261;49.010;12.034;2023-06-04T04:53:59;11.00;99.90
20204;DHT22;10261;49.010;12.034;2023-06-04T04:55:03;11.00;99.90
20204;DHT22;10261;49.010;12.034;2023-06-04T04:56:06;11.00;99.90
20204;DHT22;10261;49.010;12.034;2023-06-04T04:57:10;10.90;99.90
20204;DHT22;10261;49.010;12.034;2023-06-04T04:58:15;10.90;99.90
20204;DHT22;10261;49.010;12.034;2023-06-04T04:59:18;10.90;99.90
20204;DHT22;10261;49.010;12.034;2023-06-04T05:00:20;10.90;99.90
20204;DHT22;10261;49.010;12.034;2023-06-04T05:01:25;10.90;99.90
20204;DHT22;10261;49.010;12.034;2023-06-04T05:02:27;11.00;99.90
20204;DHT22;10261;49.010;12.034;2023-06-04T05:03:30;11.10;99.90
20204;DHT22;10261;49.010;12.034;2023-06-04T05:04:32;11.00;99.90
20204;DHT22;10261;49.010;12.034;2023-06-04T05:05:35;11.20;99.90
20204;DHT22;10261;49.010;12.034;2023-06-04T05:06:37;8.80;99.90
20204;DHT22;10261;49.010;12.034;2023-06-04T05:07:40;11.10;99.90
20204;DHT22;10261;49.010;12.034;2023-06-04T05:08:42;11.20;99.90
20204;DHT22;10261;49.010;12.034;2023-06-04T05:09:45;11.20;99.90
20204;DHT22;10261;49.010;12.034;2023-06-04T05:10:48;11.20;99.90
20204;DHT22;10261;49.010;12.034;2023-06-04T05:11:53;11.20;99.90
20204;DHT22;10261;49.010;12.034;2023-06-04T05:12:56;11.30;99.90
20204;DHT22;10261;49.010;12.034;2023-06-04T05:13:59;11.30;99.90
20204;DHT22;10261;49.010;12.034;2023-06-04T05:15:02;11.30;99.90
20204;DHT22;10261;49.010;12.034;2023-06-04T05:16:05;11.30;99.90
20204;DHT22;10261;49.010;12.034;2023-06-04T05:17:09;11.30;99.90
20204;DHT22;10261;49.010;12.034;2023-06-04T05:18:12;11.30;99.90
20204;DHT22;10261;49.010;12.034;2023-06-04T05:19:17;11.30;99.90
20204;DHT22;10261;49.010;12.034;2023-06-04T05:20:19;11.40;99.90
20204;DHT22;10261;49.010;12.034;2023-06-04T05:21:24;11.40;99.90
20204;DHT22;10261;49.010;12.034;2023-06-04T05:22:28;11.50;99.90
20204;DHT22;10261;49.010;12.034;2023-06-04T05:23:30;11.50;99.90
20204;DHT22;10261;49.010;12.034;2023-06-04T05:24:34;11.40;99.90
20204;DHT22;10261;49.010;12.034;2023-06-04T05:25:36;11.40;99.90
20204;DHT22;10261;49.010;12.034;2023-06-04T05:26:39;11.50;99.90
20204;DHT22;10261;49.010;12.034;2023-06-04T05:27:43;11.50;99.90
20204;DHT22;10261;49.010;12.034;2023-06-04T05:28:46;11.60;99.90
20204;DHT22;10261;49.010;12.034;2023-06-04T05:29:48;11.70;99.90
20204;DHT22;10261;49.010;12.034;2023-06-04T05:30:51;11.70;99.90
20204;DHT22;10261;49.010;12.034;2023-06-04T05:31:53;11.60;99.90
20204;DHT22;10261;49.010;12.034;2023-06-04T05:32:57;11.60;99.90
20204;DHT22;10261;49.010;12.034;2023-06-04T05:34:01;11.60;99.90
20204;DHT22;10261;49.010;12.034;2023-06-04T05:35:06;11.80;99.90
20204;DHT22;10261;49.010;12.034;2023-06-04T05:36:09;11.80;99.90
20204;DHT22;10261;49.010;12.034;2023-06-04T05:37:14;11.80;99.90
20204;DHT22;10261;49.010;12.034;2023-06-04T05:38:18;11.80;99.90
20204;DHT22;10261;49.010;12.034;2023-06-04T05:39:21;11.90;99.90
20204;DHT22;10261;49.010;12.034;2023-06-04T05:40:25;11.90;99.90
20204;DHT22;10261;49.010;12.034;2023-06-04T05:41:28;11.90;99.90
20204;DHT22;10261;49.010;12.034;2023-06-04T05:42:30;11.90;99.90
20204;DHT22;10261;49.010;12.034;2023-06-04T05:43:35;11.90;99.90
20204;DHT22;10261;49.010;12.034;2023-06-04T05:44:37;11.90;99.90
20204;DHT22;10261;49.010;12.034;2023-06-04T05:45:40;12.10;99.90
20204;DHT22;10261;49.010;12.034;2023-06-04T05:46:43;12.00;99.90
20204;DHT22;10261;49.010;12.034;2023-06-04T05:47:45;12.00;99.90
20204;DHT22;10261;49.010;12.034;2023-06-04T05:48:48;12.10;99.90
20204;DHT22;10261;49.010;12.034;2023-06-04T05:49:49;12.10;99.90
20204;DHT22;10261;49.010;12.034;2023-06-04T05:50:52;12.20;99.90
20204;DHT22;10261;49.010;12.034;2023-06-04T05:51:54;12.30;99.90
20204;DHT22;10261;49.010;12.034;2023-06-04T05:52:57;12.20;99.90
20204;DHT22;10261;49.010;12.034;2023-06-04T05:53:59;14.20;99.90
20204;DHT22;10261;49.010;12.034;2023-06-04T05:55:03;12.30;99.90
20204;DHT22;10261;49.010;12.034;2023-06-04T05:56:09;12.20;99.90
20204;DHT22;10261;49.010;12.034;2023-06-04T05:57:12;12.30;99.90
20204;DHT22;10261;49.010;12.034;2023-06-04T05:58:14;14.20;99.90
20204;DHT22;10261;49.010;12.034;2023-06-04T05:59:18;12.40;99.90
20204;DHT22;10261;49.010;12.034;2023-06-04T06:00:20;12.50;99.90
20204;DHT22;10261;49.010;12.034;2023-06-04T06:01:24;12.40;99.90
20204;DHT22;10261;49.010;12.034;2023-06-04T06:02:26;12.50;99.90
20204;DHT22;10261;49.010;12.034;2023-06-04T06:03:29;12.50;99.90
20204;DHT22;10261;49.010;12.034;2023-06-04T06:04:31;12.60;99.90
20204;DHT22;10261;49.010;12.034;2023-06-04T06:05:34;12.60;99.90
20204;DHT22;10261;49.010;12.034;2023-06-04T06:06:37;12.60;99.90
20204;DHT22;10261;49.010;12.034;2023-06-04T06:07:40;12.70;99.90
20204;DHT22;10261;49.010;12.034;2023-06-04T06:08:43;12.70;99.90
20204;DHT22;10261;49.010;12.034;2023-06-04T06:09:45;12.70;99.90
20204;DHT22;10261;49.010;12.034;2023-06-04T06:10:48;12.70;99.90
20204;DHT22;10261;49.010;12.034;2023-06-04T06:11:50;12.70;99.90
20204;DHT22;10261;49.010;12.034;2023-06-04T06:12:53;12.70;99.90
20204;DHT22;10261;49.010;12.034;2023-06-04T06:13:56;12.80;99.90
20204;DHT22;10261;49.010;12.034;2023-06-04T06:14:59;12.90;99.90
20204;DHT22;10261;49.010;12.034;2023-06-04T06:16:02;13.00;99.90
20204;DHT22;10261;49.010;12.034;2023-06-04T06:17:05;13.00;99.90
20204;DHT22;10261;49.010;12.034;2023-06-04T06:18:08;13.00;99.90
20204;DHT22;10261;49.010;12.034;2023-06-04T06:19:10;13.10;99.90
20204;DHT22;10261;49.010;12.034;2023-06-04T06:20:14;13.80;99.90
20204;DHT22;10261;49.010;12.034;2023-06-04T06:21:19;13.10;99.90
20204;DHT22;10261;49.010;12.034;2023-06-04T06:22:22;13.20;99.90
20204;DHT22;10261;49.010;12.034;2023-06-04T06:23:24;13.30;99.90
20204;DHT22;10261;49.010;12.034;2023-06-04T06:24:27;13.20;99.90
20204;DHT22;10261;49.010;12.034;2023-06-04T06:25:29;16.50;99.90
20204;DHT22;10261;49.010;12.034;2023-06-04T06:26:32;13.30;99.90
20204;DHT22;10261;49.010;12.034;2023-06-04T06:27:34;13.40;99.90
20204;DHT22;10261;49.010;12.034;2023-06-04T06:28:37;13.40;99.90
20204;DHT22;10261;49.010;12.034;2023-06-04T06:29:39;13.60;99.90
20204;DHT22;10261;49.010;12.034;2023-06-04T06:30:44;13.50;99.90
20204;DHT22;10261;49.010;12.034;2023-06-04T06:31:47;13.40;99.90
20204;DHT22;10261;49.010;12.034;2023-06-04T06:32:50;13.50;99.90
20204;DHT22;10261;49.010;12.034;2023-06-04T06:33:55;13.50;99.90
20204;DHT22;10261;49.010;12.034;2023-06-04T06:34:58;13.60;99.90
20204;DHT22;10261;49.010;12.034;2023-06-04T06:36:01;13.70;99.90
20204;DHT22;10261;49.010;12.034;2023-06-04T06:37:03;13.90;99.90
20204;DHT22;10261;49.010;12.034;2023-06-04T06:38:06;13.80;99.90
20204;DHT22;10261;49.010;12.034;2023-06-04T06:39:08;13.80;99.90
20204;DHT22;10261;49.010;12.034;2023-06-04T06:40:12;13.80;99.90
20204;DHT22;10261;49.010;12.034;2023-06-04T06:41:14;13.90;99.90